Time;durP1;ratioP1;P1;durP2;ratioP2;P2;SDS_P1;SDS_P2;PMS_P1;PMS_P2;Temp;Humidity;BMP_temperature;BMP_pressure;BME280_temperature;BME280_humidity;BME280_pressure;Samples;Min_cycle;Max_cycle;Signal;HPM_P1;HPM_P2
2023/03/18 00:00:00;;;;;;;10.53;6.47;;;;;;;12.76;76.58;100607.84;5210203;28;20104;-75
2023/03/18 00:02:32;;;;;;;14.13;7.57;;;;;;;13.13;75.15;100662.13;5216469;28;20080;-76
2023/03/18 00:05:06;;;;;;;13.37;7.80;;;;;;;13.11;76.26;100684.25;5214752;28;20034;-75
2023/03/18 00:07:38;;;;;;;15.38;7.60;;;;;;;13.11;75.86;100673.72;5216454;28;20117;-75
2023/03/18 00:10:10;;;;;;;12.73;6.23;;;;;;;13.21;75.32;100677.34;5202383;28;20088;-75
2023/03/18 00:12:42;;;;;;;14.70;6.93;;;;;;;13.15;74.90;100668.13;5194512;28;20034;-75
2023/03/18 00:15:16;;;;;;;17.43;6.83;;;;;;;13.12;77.96;100688.53;5209415;28;20034;-76
2023/03/18 00:17:48;;;;;;;10.65;7.10;;;;;;;13.11;75.96;100671.09;5202997;28;20034;-75
2023/03/18 00:20:27;;;;;;;12.30;7.30;;;;;;;12.93;77.48;100682.81;5214992;28;20659;-76
2023/03/18 00:22:59;;;;;;;13.97;6.77;;;;;;;12.93;77.25;100659.16;5197866;28;20033;-76
2023/03/18 00:25:30;;;;;;;14.37;7.43;;;;;;;12.64;78.07;100637.63;5197869;28;20484;-75
2023/03/18 00:28:05;;;;;;;16.37;7.17;;;;;;;12.68;78.90;100660.13;5215769;28;20485;-75
2023/03/18 00:30:38;;;;;;;12.87;6.70;;;;;;;12.53;80.26;100631.34;5215933;28;20029;-75
2023/03/18 00:33:11;;;;;;;13.20;6.70;;;;;;;12.80;77.98;100661.88;5215427;28;20373;-75
2023/03/18 00:35:44;;;;;;;17.07;7.10;;;;;;;12.97;77.45;100686.06;5197659;28;20048;-75
2023/03/18 00:38:19;;;;;;;12.33;7.33;;;;;;;12.98;77.65;100698.28;5215130;28;20024;-75
2023/03/18 00:40:52;;;;;;;11.73;6.20;;;;;;;12.91;77.49;100661.09;5215735;28;20373;-75
2023/03/18 00:43:28;;;;;;;10.33;6.03;;;;;;;12.66;79.52;100667.25;5215036;28;20105;-76
2023/03/18 00:45:59;;;;;;;18.97;6.40;;;;;;;12.92;77.80;100685.56;5197968;28;20041;-76
2023/03/18 00:48:31;;;;;;;13.23;6.50;;;;;;;13.14;77.58;100712.94;5213802;28;20386;-76
2023/03/18 00:51:02;;;;;;;14.03;7.00;;;;;;;13.04;79.50;100713.59;5214416;28;20026;-75
2023/03/18 00:53:34;;;;;;;10.93;6.80;;;;;;;13.04;77.49;100705.72;5215304;28;20080;-75
2023/03/18 00:56:05;;;;;;;9.77;6.50;;;;;;;12.67;78.42;100675.03;5214024;28;20037;-75
2023/03/18 00:58:37;;;;;;;13.17;7.30;;;;;;;12.73;77.96;100655.38;5214752;28;20477;-75
2023/03/18 01:01:09;;;;;;;12.60;6.93;;;;;;;12.87;78.91;100690.31;5214323;28;20034;-75
2023/03/18 01:03:41;;;;;;;15.20;6.90;;;;;;;12.88;78.82;100682.31;5215231;28;20740;-75
2023/03/18 01:06:17;;;;;;;14.97;6.40;;;;;;;13.05;79.48;100723.19;5214536;28;20481;-75
2023/03/18 01:08:49;;;;;;;17.67;8.33;;;;;;;12.96;80.26;100708.06;5214419;28;20494;-75
2023/03/18 01:11:22;;;;;;;12.53;6.83;;;;;;;12.80;80.34;100685.50;5215136;28;20096;-75
2023/03/18 01:13:53;;;;;;;14.00;6.77;;;;;;;12.95;81.41;100711.66;5214167;28;20028;-75
2023/03/18 01:16:25;;;;;;;15.33;7.13;;;;;;;12.85;81.84;100679.91;5214347;28;20022;-75
2023/03/18 01:18:57;;;;;;;14.80;8.07;;;;;;;12.53;84.66;100673.38;5209869;28;20037;-75
2023/03/18 01:21:28;;;;;;;17.23;7.77;;;;;;;12.61;88.02;100674.63;5214412;28;20034;-76
2023/03/18 01:24:00;;;;;;;12.93;8.80;;;;;;;12.45;92.34;100665.22;5214748;28;20022;-76
2023/03/18 01:26:32;;;;;;;15.77;7.77;;;;;;;12.32;96.30;100667.88;5214715;28;20086;-76
2023/03/18 01:29:04;;;;;;;18.20;8.80;;;;;;;12.58;99.16;100692.28;5214570;28;20525;-75
2023/03/18 01:31:36;;;;;;;18.80;9.73;;;;;;;12.65;100.00;100713.75;5214009;28;20046;-76
2023/03/18 01:34:07;;;;;;;17.10;8.73;;;;;;;12.51;100.00;100690.22;5205310;28;20501;-75
2023/03/18 01:36:39;;;;;;;16.77;9.93;;;;;;;12.61;100.00;100701.75;5213491;28;20049;-76
2023/03/18 01:39:11;;;;;;;20.40;10.17;;;;;;;12.46;100.00;100677.41;5214230;28;20062;-76
2023/03/18 01:41:43;;;;;;;19.23;10.80;;;;;;;12.43;100.00;100703.88;5214888;28;20057;-76
2023/03/18 01:44:19;;;;;;;17.50;9.27;;;;;;;12.33;100.00;100691.41;5214125;28;20113;-75
2023/03/18 01:46:52;;;;;;;21.77;10.77;;;;;;;12.18;100.00;100668.84;5210592;28;20026;-76
2023/03/18 01:49:29;;;;;;;15.57;9.57;;;;;;;12.56;100.00;100709.13;5204042;28;20409;-75
2023/03/18 01:52:04;;;;;;;14.77;10.00;;;;;;;12.41;100.00;100700.53;5196005;28;20033;-76
2023/03/18 01:54:40;;;;;;;17.67;10.90;;;;;;;12.04;100.00;100668.00;5214726;28;20129;-76
2023/03/18 01:57:16;;;;;;;16.37;9.67;;;;;;;12.19;100.00;100675.78;5213753;28;20477;-75
2023/03/18 01:59:50;;;;;;;21.10;10.50;;;;;;;12.17;100.00;100691.63;5214022;28;20022;-76
2023/03/18 02:02:22;;;;;;;15.67;10.90;;;;;;;11.89;100.00;100671.66;5213448;28;20026;-75
2023/03/18 02:04:58;;;;;;;21.17;12.43;;;;;;;11.91;100.00;100657.50;5212919;28;20021;-75
2023/03/18 02:07:34;;;;;;;18.23;10.77;;;;;;;12.07;100.00;100670.41;5213322;28;20382;-75
2023/03/18 02:10:10;;;;;;;17.83;10.23;;;;;;;11.90;100.00;100644.47;5213493;28;20109;-75
2023/03/18 02:12:45;;;;;;;18.33;11.17;;;;;;;12.26;100.00;100703.28;5212005;28;20030;-75
2023/03/18 02:15:20;;;;;;;15.70;11.47;;;;;;;12.06;100.00;100667.88;5211738;28;20128;-76
2023/03/18 02:18:15;;;;;;;20.87;11.63;;;;;;;12.37;100.00;100712.19;5194137;28;20042;-76
2023/03/18 02:20:47;;;;;;;;;;;;;;;12.46;100.00;100715.00;5213314;28;20117;-75
2023/03/18 02:23:36;;;;;;;22.40;12.60;;;;;;;12.29;100.00;100708.31;5197623;28;20063;-75
2023/03/18 02:26:17;;;;;;;19.80;11.43;;;;;;;12.09;100.00;100684.31;5200885;28;20030;-75
2023/03/18 02:28:53;;;;;;;22.07;12.90;;;;;;;12.06;100.00;100718.59;5213377;28;20026;-75
2023/03/18 02:31:26;;;;;;;21.70;12.40;;;;;;;11.96;100.00;100697.38;5213488;28;20033;-75
2023/03/18 02:33:58;;;;;;;25.13;13.07;;;;;;;11.92;100.00;100695.91;5197611;28;20049;-75
2023/03/18 02:36:32;;;;;;;19.23;12.30;;;;;;;12.10;100.00;100735.00;5212636;28;20482;-76
2023/03/18 02:39:04;;;;;;;20.65;11.85;;;;;;;11.95;100.00;100710.59;5212957;28;20022;-75
2023/03/18 02:41:36;;;;;;;20.60;12.70;;;;;;;11.88;100.00;100704.94;5213773;28;20760;-75
2023/03/18 02:44:10;;;;;;;22.23;12.50;;;;;;;12.10;100.00;100740.25;5213317;28;20030;-75
2023/03/18 02:46:54;;;;;;;17.70;11.65;;;;;;;12.05;100.00;100718.69;5214702;28;20755;-75
2023/03/18 02:49:26;;;;;;;18.80;12.88;;;;;;;11.75;100.00;100704.91;5212063;28;20022;-75
2023/03/18 02:51:57;;;;;;;20.50;11.77;;;;;;;11.72;100.00;100689.38;5212649;28;20022;-75
2023/03/18 02:54:30;;;;;;;17.90;12.67;;;;;;;12.01;100.00;100749.56;5212075;28;20511;-75
2023/03/18 02:57:01;;;;;;;21.33;13.03;;;;;;;11.68;100.00;100708.88;5212758;28;20017;-75
2023/03/18 02:59:33;;;;;;;20.97;13.10;;;;;;;11.72;100.00;100716.47;5212975;28;20033;-75
2023/03/18 03:02:05;;;;;;;18.40;13.10;;;;;;;11.64;100.00;100704.81;5212551;28;20048;-75
2023/03/18 03:04:37;;;;;;;20.03;13.17;;;;;;;11.78;100.00;100720.44;5212255;28;20086;-75
2023/03/18 03:07:08;;;;;;;17.20;12.63;;;;;;;11.91;100.00;100756.38;5212199;28;20295;-75
2023/03/18 03:09:41;;;;;;;19.83;13.00;;;;;;;11.47;100.00;100712.84;5212966;28;20113;-75
2023/03/18 03:12:12;;;;;;;19.37;13.00;;;;;;;11.66;100.00;100731.78;5212162;28;20022;-75
2023/03/18 03:14:43;;;;;;;19.10;12.93;;;;;;;11.62;100.00;100718.84;5213157;28;20029;-76
2023/03/18 03:17:15;;;;;;;18.83;13.10;;;;;;;11.57;100.00;100718.31;5212375;28;20061;-76
2023/03/18 03:19:46;;;;;;;21.90;13.53;;;;;;;11.83;100.00;100764.75;5211169;28;20025;-76
2023/03/18 03:22:18;;;;;;;20.57;13.33;;;;;;;11.68;100.00;100746.47;5210117;28;20026;-76
2023/03/18 03:24:50;;;;;;;19.70;13.37;;;;;;;11.79;100.00;100752.78;5209264;28;20552;-76
2023/03/18 03:27:21;;;;;;;15.87;12.10;;;;;;;11.53;100.00;100722.09;5212311;28;20408;-76
2023/03/18 03:29:54;;;;;;;20.80;12.80;;;;;;;11.65;100.00;100730.09;5211223;28;20029;-76
2023/03/18 03:32:25;;;;;;;18.40;14.13;;;;;;;11.68;100.00;100737.75;5212253;28;20029;-76
2023/03/18 03:34:57;;;;;;;21.23;13.13;;;;;;;11.52;100.00;100730.88;5210906;28;20050;-75
2023/03/18 03:37:28;;;;;;;22.00;14.23;;;;;;;11.44;100.00;100712.19;5212964;28;20026;-75
2023/03/18 03:40:07;;;;;;;17.03;12.77;;;;;;;11.72;100.00;100753.19;5212762;28;20037;-75
2023/03/18 03:42:39;;;;;;;18.00;13.70;;;;;;;11.60;100.00;100722.53;5212361;28;20061;-75
2023/03/18 03:45:12;;;;;;;18.00;13.10;;;;;;;11.65;100.00;100735.34;5195417;28;20474;-76
2023/03/18 03:47:45;;;;;;;19.85;14.20;;;;;;;11.57;100.00;100718.31;5211933;28;20030;-76
2023/03/18 03:50:17;;;;;;;18.87;13.67;;;;;;;11.60;100.00;100738.28;5211487;28;20030;-75
2023/03/18 03:52:48;;;;;;;24.43;15.80;;;;;;;11.64;100.00;100742.38;5211591;28;20033;-75
2023/03/18 03:55:21;;;;;;;24.30;13.17;;;;;;;11.70;100.00;100767.34;5210557;28;20079;-75
2023/03/18 03:57:52;;;;;;;19.83;15.20;;;;;;;11.52;100.00;100754.50;5210616;28;20026;-75
2023/03/18 04:00:24;;;;;;;18.83;14.33;;;;;;;11.76;100.00;100781.84;5211251;28;20049;-75
2023/03/18 04:02:59;;;;;;;19.07;14.57;;;;;;;11.54;100.00;100739.50;5206914;28;20136;-75
2023/03/18 04:05:30;;;;;;;19.58;13.82;;;;;;;11.53;100.00;100745.72;5208841;28;20278;-75
2023/03/18 04:08:02;;;;;;;22.43;14.30;;;;;;;11.57;100.00;100752.41;5212045;28;20101;-75
2023/03/18 04:10:35;;;;;;;24.67;15.30;;;;;;;11.54;100.00;100760.50;5212304;28;20477;-75
2023/03/18 04:13:07;;;;;;;23.33;14.27;;;;;;;11.75;100.00;100778.38;5212407;28;20021;-75
2023/03/18 04:15:39;;;;;;;23.37;16.80;;;;;;;11.46;100.00;100755.75;5211861;28;20040;-75
2023/03/18 04:18:10;;;;;;;17.30;13.73;;;;;;;11.46;100.00;100741.81;5211436;28;20034;-75
2023/03/18 04:20:42;;;;;;;20.47;15.27;;;;;;;11.52;100.00;100740.56;5189069;28;20497;-75
2023/03/18 04:23:13;;;;;;;21.90;15.63;;;;;;;11.72;100.00;100783.84;5189067;28;20022;-75
2023/03/18 04:25:44;;;;;;;24.60;16.93;;;;;;;11.67;100.00;100764.94;5215391;28;20115;-75
2023/03/18 04:28:16;;;;;;;20.93;15.83;;;;;;;11.43;100.00;100753.31;5215315;28;20034;-75
2023/03/18 04:30:47;;;;;;;21.37;17.03;;;;;;;11.55;100.00;100762.19;5215491;28;20069;-75
2023/03/18 04:33:20;;;;;;;20.70;16.47;;;;;;;11.73;100.00;100796.00;5215738;28;20417;-75
2023/03/18 04:35:52;;;;;;;20.43;15.37;;;;;;;11.57;100.00;100765.53;5214993;28;20105;-75
2023/03/18 04:38:23;;;;;;;23.27;15.73;;;;;;;11.69;100.00;100784.91;5216053;28;20021;-75
2023/03/18 04:40:54;;;;;;;23.20;16.90;;;;;;;11.42;100.00;100762.13;5215402;28;20033;-75
2023/03/18 04:43:26;;;;;;;27.30;16.90;;;;;;;11.46;100.00;100768.03;5215765;28;20029;-75
2023/03/18 04:45:57;;;;;;;25.50;17.77;;;;;;;11.48;100.00;100776.63;5215276;28;20375;-75
2023/03/18 04:48:29;;;;;;;22.43;17.43;;;;;;;11.45;100.00;100779.47;5201987;28;20071;-75
2023/03/18 04:51:00;;;;;;;23.47;16.57;;;;;;;11.45;100.00;100784.72;5214517;28;20528;-75
2023/03/18 04:53:32;;;;;;;19.97;15.20;;;;;;;11.36;100.00;100765.97;5197982;28;20517;-75
2023/03/18 04:56:04;;;;;;;22.60;15.43;;;;;;;11.44;100.00;100801.38;5215277;28;20025;-75
2023/03/18 04:58:36;;;;;;;19.23;15.63;;;;;;;11.14;100.00;100771.75;5197894;28;20032;-74
2023/03/18 05:01:07;;;;;;;22.73;15.77;;;;;;;10.99;100.00;100742.13;5206094;28;20391;-74
2023/03/18 05:03:40;;;;;;;22.80;16.73;;;;;;;11.40;100.00;100805.13;5214330;28;20029;-74
2023/03/18 05:06:30;;;;;;;22.07;14.60;;;;;;;11.36;100.00;100794.81;5190806;28;20455;-74
2023/03/18 05:09:04;;;;;;;23.90;17.20;;;;;;;11.40;100.00;100820.88;5209452;28;20018;-74
2023/03/18 05:11:35;;;;;;;22.75;15.43;;;;;;;11.38;100.00;100816.56;5208168;28;20050;-74
2023/03/18 05:14:07;;;;;;;23.07;16.77;;;;;;;11.20;100.00;100794.13;5214363;28;20053;-74
2023/03/18 05:16:38;;;;;;;19.23;15.37;;;;;;;11.20;100.00;100781.88;5197832;28;20025;-75
2023/03/18 05:19:10;;;;;;;20.30;15.70;;;;;;;11.22;100.00;100779.97;5195787;28;20018;-75
2023/03/18 05:21:41;;;;;;;23.27;15.83;;;;;;;11.47;100.00;100822.16;5199365;28;20125;-75
2023/03/18 05:24:13;;;;;;;20.13;16.13;;;;;;;11.38;100.00;100803.44;5214754;28;20026;-75
2023/03/18 05:26:45;;;;;;;21.40;14.90;;;;;;;11.24;100.00;100769.41;5215095;28;20029;-75
2023/03/18 05:29:16;;;;;;;19.70;15.23;;;;;;;11.36;100.00;100800.06;5214931;28;20017;-74
2023/03/18 05:31:48;;;;;;;23.97;16.57;;;;;;;11.35;100.00;100808.88;5197349;28;20022;-75
2023/03/18 05:34:20;;;;;;;19.27;14.33;;;;;;;11.13;100.00;100768.31;5212889;28;20123;-75
2023/03/18 05:36:51;;;;;;;22.70;15.60;;;;;;;11.19;100.00;100781.97;5214987;28;20064;-75
2023/03/18 05:39:23;;;;;;;26.57;18.70;;;;;;;10.98;100.00;100748.31;5197371;28;20039;-75
2023/03/18 05:41:55;;;;;;;22.13;17.50;;;;;;;11.36;100.00;100809.75;5214860;28;20160;-75
2023/03/18 05:44:27;;;;;;;24.90;16.47;;;;;;;11.06;100.00;100768.78;5213359;28;20053;-76
2023/03/18 05:46:59;;;;;;;22.17;16.70;;;;;;;11.30;100.00;100804.88;5214306;28;20069;-76
2023/03/18 05:49:30;;;;;;;21.57;17.07;;;;;;;11.08;100.00;100791.34;5201385;28;20017;-76
2023/03/18 05:52:02;;;;;;;21.97;15.40;;;;;;;11.01;100.00;100790.06;5214482;28;20112;-76
2023/03/18 05:54:34;;;;;;;22.03;15.80;;;;;;;10.94;100.00;100794.00;5214343;28;20026;-76
2023/03/18 05:57:06;;;;;;;23.27;16.60;;;;;;;10.94;100.00;100780.91;5213645;28;20036;-75
2023/03/18 05:59:37;;;;;;;20.87;15.63;;;;;;;11.06;100.00;100814.19;5205488;28;20458;-75
2023/03/18 06:02:09;;;;;;;21.73;17.33;;;;;;;11.22;100.00;100850.75;5196799;28;20428;-76
2023/03/18 06:04:41;;;;;;;21.97;16.67;;;;;;;11.20;100.00;100846.56;5212559;28;20545;-76
2023/03/18 06:07:12;;;;;;;24.57;16.23;;;;;;;11.20;100.00;100851.81;5213568;28;20041;-76
2023/03/18 06:09:44;;;;;;;22.17;16.27;;;;;;;11.08;100.00;100853.41;5213208;28;20100;-76
2023/03/18 06:12:19;;;;;;;20.23;15.63;;;;;;;11.05;100.00;100851.00;5213466;28;20017;-78
2023/03/18 06:14:51;;;;;;;23.53;16.30;;;;;;;10.62;100.00;100806.38;5201629;28;20070;-76
2023/03/18 06:17:22;;;;;;;20.13;16.80;;;;;;;11.04;100.00;100844.91;5208060;28;20103;-76
2023/03/18 06:19:55;;;;;;;23.33;16.63;;;;;;;10.74;100.00;100835.34;5190905;28;20101;-76
2023/03/18 06:22:27;;;;;;;17.77;14.40;;;;;;;10.71;100.00;100793.63;5195369;28;20049;-76
2023/03/18 06:24:58;;;;;;;17.73;14.73;;;;;;;11.07;100.00;100852.56;5195828;28;20113;-76
2023/03/18 06:27:30;;;;;;;24.73;15.77;;;;;;;10.77;100.00;100799.34;5213543;28;20033;-76
2023/03/18 06:30:03;;;;;;;22.67;15.63;;;;;;;10.73;100.00;100807.50;5213782;28;20653;-76
2023/03/18 06:32:34;;;;;;;21.80;15.97;;;;;;;10.60;100.00;100807.38;5211864;28;20596;-77
2023/03/18 06:35:07;;;;;;;20.67;15.47;;;;;;;10.92;100.00;100859.59;5207044;28;20054;-74
2023/03/18 06:37:39;;;;;;;18.53;14.23;;;;;;;11.09;100.00;100863.81;5209402;28;20041;-75
2023/03/18 06:40:11;;;;;;;31.90;18.70;;;;;;;10.83;100.00;100823.47;5210159;28;20493;-74
2023/03/18 06:42:43;;;;;;;24.93;17.00;;;;;;;10.85;100.00;100832.09;5198957;28;20474;-74
2023/03/18 06:45:15;;;;;;;27.60;17.87;;;;;;;10.76;100.00;100833.50;5207271;28;20060;-75
2023/03/18 06:47:48;;;;;;;24.70;17.20;;;;;;;10.76;100.00;100828.25;5213050;28;20646;-75
2023/03/18 06:50:21;;;;;;;21.63;14.70;;;;;;;10.92;100.00;100869.22;5209680;28;20038;-75
2023/03/18 06:52:53;;;;;;;23.20;15.60;;;;;;;10.66;100.00;100838.44;5206336;28;20029;-75
2023/03/18 06:55:25;;;;;;;22.00;16.73;;;;;;;10.94;100.00;100855.13;5211990;28;20028;-75
2023/03/18 06:57:57;;;;;;;20.70;16.27;;;;;;;11.04;100.00;100871.09;5211365;28;20029;-75
2023/03/18 07:00:30;;;;;;;25.30;15.70;;;;;;;10.75;100.00;100837.88;5196509;28;20036;-74
2023/03/18 07:03:03;;;;;;;20.93;15.27;;;;;;;10.97;100.00;100877.66;5197835;28;20017;-75
2023/03/18 07:05:35;;;;;;;20.10;15.00;;;;;;;11.00;100.00;100885.31;5212246;28;20033;-75
2023/03/18 07:08:08;;;;;;;18.83;15.33;;;;;;;10.96;100.00;100875.97;5211808;28;20026;-75
2023/03/18 07:10:39;;;;;;;20.33;15.13;;;;;;;10.98;100.00;100872.31;5198734;28;20501;-75
2023/03/18 07:13:12;;;;;;;17.60;15.07;;;;;;;11.10;100.00;100886.44;5212231;28;20113;-74
2023/03/18 07:15:44;;;;;;;18.53;14.60;;;;;;;11.05;100.00;100883.25;5197678;28;20017;-75
2023/03/18 07:18:15;;;;;;;18.93;14.70;;;;;;;10.95;100.00;100880.38;5197253;28;20061;-74
2023/03/18 07:20:47;;;;;;;22.83;15.80;;;;;;;11.00;100.00;100888.78;5211047;28;20477;-74
2023/03/18 07:23:19;;;;;;;17.80;14.67;;;;;;;11.12;100.00;100916.03;5211922;28;20021;-74
2023/03/18 07:25:50;;;;;;;18.10;15.33;;;;;;;10.99;100.00;100891.50;5211686;28;20029;-74
2023/03/18 07:28:22;;;;;;;17.93;14.77;;;;;;;11.10;100.00;100920.50;5194741;28;20018;-74
2023/03/18 07:30:55;;;;;;;16.97;14.47;;;;;;;11.08;100.00;100911.91;5210232;28;20402;-74
2023/03/18 07:33:27;;;;;;;17.67;13.77;;;;;;;11.15;100.00;100908.91;5209237;28;20028;-75
2023/03/18 07:35:59;;;;;;;18.93;14.47;;;;;;;11.24;100.00;100919.69;5211867;28;20040;-74
2023/03/18 07:38:30;;;;;;;16.60;14.80;;;;;;;11.21;100.00;100898.91;5194470;28;20025;-74
2023/03/18 07:41:01;;;;;;;18.83;14.20;;;;;;;11.30;100.00;100905.34;5204528;28;20026;-74
2023/03/18 07:43:33;;;;;;;20.80;14.83;;;;;;;11.28;100.00;100898.50;5212220;28;20025;-74
2023/03/18 07:46:05;;;;;;;17.40;14.70;;;;;;;11.49;100.00;100918.16;5191089;28;20581;-74
2023/03/18 07:48:37;;;;;;;16.33;13.43;;;;;;;11.44;100.00;100908.88;5210936;28;20117;-74
2023/03/18 07:51:08;;;;;;;15.93;13.60;;;;;;;11.61;100.00;100934.91;5203419;28;20109;-74
2023/03/18 07:53:40;;;;;;;14.83;13.20;;;;;;;11.52;100.00;100905.78;5211372;28;20119;-74
2023/03/18 07:56:12;;;;;;;16.57;14.23;;;;;;;11.76;100.00;100937.50;5194189;28;20038;-74
2023/03/18 07:58:43;;;;;;;16.83;12.50;;;;;;;11.88;100.00;100933.25;5214176;28;20374;-74
2023/03/18 08:01:17;;;;;;;17.00;13.33;;;;;;;11.87;100.00;100918.44;5206359;28;20036;-75
2023/03/18 08:03:48;;;;;;;14.67;12.00;;;;;;;11.89;100.00;100899.97;5210956;28;20128;-75
2023/03/18 08:06:19;;;;;;;13.90;11.90;;;;;;;12.19;100.00;100927.81;5215941;28;20105;-75
2023/03/18 08:08:51;;;;;;;14.83;12.90;;;;;;;12.26;100.00;100917.75;5215607;28;20022;-75
2023/03/18 08:11:22;;;;;;;14.87;11.60;;;;;;;12.14;100.00;100901.88;5215703;28;20033;-75
2023/03/18 08:13:53;;;;;;;12.87;10.40;;;;;;;12.46;100.00;100914.63;5215913;28;20030;-74
2023/03/18 08:16:25;;;;;;;14.90;10.83;;;;;;;12.39;100.00;100892.34;5215500;28;20033;-74
2023/03/18 08:18:57;;;;;;;13.47;10.00;;;;;;;12.53;100.00;100894.06;5213986;28;20040;-75
2023/03/18 08:21:29;;;;;;;10.50;8.73;;;;;;;12.91;100.00;100917.84;5208001;28;20038;-75
2023/03/18 08:24:00;;;;;;;10.67;9.30;;;;;;;12.78;100.00;100899.41;5189473;28;20043;-74
2023/03/18 08:26:31;;;;;;;13.07;9.03;;;;;;;12.87;100.00;100896.19;5215477;28;20101;-75
2023/03/18 08:29:03;;;;;;;12.17;8.90;;;;;;;13.15;100.00;100917.94;5215251;28;20014;-75
2023/03/18 08:31:34;;;;;;;11.00;9.00;;;;;;;13.15;100.00;100901.28;5209782;28;20034;-75
2023/03/18 08:34:06;;;;;;;10.77;8.53;;;;;;;13.29;100.00;100927.47;5214147;28;20095;-75
2023/03/18 08:36:39;;;;;;;11.60;8.57;;;;;;;13.41;100.00;100914.41;5215424;28;20497;-75
2023/03/18 08:39:11;;;;;;;11.32;8.38;;;;;;;13.40;100.00;100908.31;5214836;28;20033;-75
2023/03/18 08:41:42;;;;;;;9.33;8.30;;;;;;;13.68;100.00;100937.09;5215421;28;20469;-75
2023/03/18 08:44:14;;;;;;;8.70;7.80;;;;;;;13.69;100.00;100916.88;5215501;28;20025;-75
2023/03/18 08:46:45;;;;;;;11.67;8.77;;;;;;;13.90;100.00;100940.81;5197583;28;20018;-75
2023/03/18 08:49:17;;;;;;;11.37;9.27;;;;;;;13.93;100.00;100908.97;5214029;28;20029;-75
2023/03/18 08:51:49;;;;;;;11.83;9.17;;;;;;;14.19;100.00;100935.19;5207111;28;20029;-75
2023/03/18 08:54:20;;;;;;;12.10;8.93;;;;;;;14.28;100.00;100928.41;5210501;28;20089;-75
2023/03/18 08:56:54;;;;;;;12.33;8.10;;;;;;;14.42;100.00;100940.53;5201844;28;20056;-75
2023/03/18 08:59:25;;;;;;;11.60;8.33;;;;;;;14.54;100.00;100943.22;5214854;28;20401;-74
2023/03/18 09:01:56;;;;;;;8.80;7.50;;;;;;;14.60;100.00;100927.78;5209397;28;20022;-74
2023/03/18 09:04:28;;;;;;;10.77;7.73;;;;;;;14.56;100.00;100894.69;5205619;28;20554;-74
2023/03/18 09:07:00;;;;;;;10.47;8.47;;;;;;;14.92;100.00;100941.28;5188738;28;20061;-74
2023/03/18 09:09:31;;;;;;;10.60;8.03;;;;;;;15.05;100.00;100928.81;5213500;28;20742;-74
2023/03/18 09:12:04;;;;;;;8.83;7.10;;;;;;;15.31;100.00;100941.78;5214560;28;20104;-74
2023/03/18 09:14:35;;;;;;;11.20;7.03;;;;;;;15.51;100.00;100947.28;5214001;28;20152;-74
2023/03/18 09:17:07;;;;;;;9.10;7.33;;;;;;;15.44;100.00;100920.53;5214282;28;20553;-74
2023/03/18 09:19:39;;;;;;;9.00;7.13;;;;;;;15.54;100.00;100946.19;5213909;28;20029;-74
2023/03/18 09:22:10;;;;;;;7.73;5.93;;;;;;;15.31;100.00;100904.81;5196496;28;20021;-74
2023/03/18 09:24:42;;;;;;;8.27;6.80;;;;;;;15.41;100.00;100923.41;5196132;28;20454;-74
2023/03/18 09:27:13;;;;;;;9.13;7.37;;;;;;;15.34;100.00;100919.59;5212786;28;20029;-74
2023/03/18 09:29:45;;;;;;;9.53;7.50;;;;;;;15.48;100.00;100943.06;5213627;28;20018;-74
2023/03/18 09:32:16;;;;;;;8.63;5.80;;;;;;;15.62;100.00;100938.50;5195139;28;20029;-74
2023/03/18 09:34:48;;;;;;;11.43;6.77;;;;;;;15.80;100.00;100932.69;5212147;28;20074;-74
2023/03/18 09:37:20;;;;;;;7.93;5.60;;;;;;;16.11;100.00;100943.41;5213267;28;20034;-74
2023/03/18 09:39:51;;;;;;;7.27;5.40;;;;;;;16.38;100.00;100955.34;5208424;28;20034;-74
2023/03/18 09:42:58;;;;;;;15.17;6.20;;;;;;;16.60;100.00;100947.41;5205708;28;20021;-74
2023/03/18 09:45:43;;;;;;;7.77;4.97;;;;;;;16.64;100.00;100928.50;5203839;28;20551;-74
2023/03/18 09:48:51;;;;;;;10.40;5.47;;;;;;;16.99;100.00;100944.13;5213209;28;20021;-74
2023/03/18 09:51:42;;;;;;;7.63;4.50;;;;;;;17.13;100.00;100954.41;5213609;28;20030;-74
2023/03/18 09:54:16;;;;;;;8.37;5.47;;;;;;;17.14;100.00;100923.50;5214043;28;20101;-74
2023/03/18 09:56:49;;;;;;;8.48;5.63;;;;;;;17.52;100.00;100942.28;5213610;28;20041;-74
2023/03/18 09:59:39;;;;;;;6.43;4.97;;;;;;;17.73;100.00;100906.91;5213933;28;20025;-74
2023/03/18 10:02:21;;;;;;;7.60;4.33;;;;;;;18.17;100.00;100897.75;5200478;28;20033;-74
2023/03/18 10:04:56;;;;;;;8.63;4.50;;;;;;;18.36;100.00;100900.34;5212254;28;20033;-74
2023/03/18 10:07:34;;;;;;;8.33;4.60;;;;;;;18.29;100.00;100909.03;5213424;28;20022;-74
2023/03/18 10:10:10;;;;;;;8.77;3.57;;;;;;;18.20;100.00;100924.81;5213054;28;20030;-74
2023/03/18 10:12:47;;;;;;;6.27;3.83;;;;;;;18.24;100.00;100882.94;5213599;28;20029;-74
2023/03/18 10:15:35;;;;;;;8.17;3.87;;;;;;;19.12;100.00;100954.50;5212835;28;20034;-74
2023/03/18 10:18:26;;;;;;;8.30;4.27;;;;;;;19.47;100.00;100926.38;5211732;28;20064;-74
2023/03/18 10:21:45;;;;;;;7.80;2.90;;;;;;;19.93;100.00;100950.25;5212804;28;20026;-74
2023/03/18 10:24:39;;;;;;;7.37;3.50;;;;;;;20.45;100.00;100950.56;5185629;28;20505;-74
2023/03/18 10:27:37;;;;;;;6.53;2.93;;;;;;;19.65;100.00;100920.25;5212829;28;20413;-74
2023/03/18 10:30:33;;;;;;;6.37;2.70;;;;;;;19.35;100.00;100949.66;5213374;28;20284;-74
2023/03/18 10:33:32;;;;;;;5.23;2.63;;;;;;;19.71;100.00;100943.56;5183664;28;20030;-74
2023/03/18 10:36:12;;;;;;;5.83;2.67;;;;;;;19.43;100.00;100917.03;5174847;28;20082;-74
2023/03/18 10:38:49;;;;;;;6.80;2.67;;;;;;;19.42;100.00;100934.81;5192284;28;20520;-74
2023/03/18 10:41:37;;;;;;;7.13;3.17;;;;;;;19.57;100.00;100931.63;5192423;28;20824;-73
2023/03/18 10:44:21;;;;;;;7.07;2.80;;;;;;;19.08;100.00;100917.59;5174530;28;20030;-74
2023/03/18 10:47:05;;;;;;;7.18;3.17;;;;;;;19.09;100.00;100911.31;5179373;28;20029;-73
2023/03/18 10:49:41;;;;;;;5.57;2.92;;;;;;;19.16;100.00;100929.34;5191432;28;20026;-74
2023/03/18 10:52:25;;;;;;;5.63;2.47;;;;;;;18.61;99.97;100871.56;5192481;28;20030;-73
2023/03/18 10:54:57;;;;;;;6.25;2.45;;;;;;;18.56;100.00;100897.69;5192176;28;20030;-74
2023/03/18 10:57:29;;;;;;;6.87;2.57;;;;;;;18.21;100.00;100907.06;5193110;28;20041;-73
2023/03/18 11:00:00;;;;;;;6.23;2.60;;;;;;;18.09;100.00;100885.16;5192371;28;20429;-74
2023/03/18 11:02:35;;;;;;;7.73;2.67;;;;;;;18.07;100.00;100892.41;5192180;28;20038;-73
2023/03/18 11:05:28;;;;;;;6.20;2.33;;;;;;;18.37;100.00;100933.03;5191235;28;20030;-74
2023/03/18 11:08:02;;;;;;;8.50;2.80;;;;;;;18.26;99.66;100940.16;5191993;28;20026;-74
2023/03/18 11:10:42;;;;;;;8.90;2.80;;;;;;;18.09;100.00;100939.00;5186442;28;20034;-73
2023/03/18 11:13:16;;;;;;;6.87;2.20;;;;;;;18.09;100.00;100927.56;5185940;28;20038;-73
2023/03/18 11:15:51;;;;;;;8.30;3.28;;;;;;;17.95;98.86;100932.31;5191986;28;20029;-73
2023/03/18 11:18:25;;;;;;;5.30;2.10;;;;;;;17.84;99.33;100916.56;5161963;28;20031;-73
2023/03/18 11:21:00;;;;;;;6.63;2.05;;;;;;;17.49;99.54;100924.03;5174699;28;20082;-73
2023/03/18 11:23:47;;;;;;;7.20;2.80;;;;;;;17.71;100.00;100944.13;5186198;28;20030;-73
2023/03/18 11:26:21;;;;;;;6.43;2.20;;;;;;;17.70;98.13;100944.28;5181085;28;20053;-73
2023/03/18 11:28:57;;;;;;;8.60;2.17;;;;;;;17.32;97.65;100921.03;5174323;28;20011;-73
2023/03/18 11:31:28;;;;;;;7.73;2.50;;;;;;;17.26;97.83;100937.47;5191918;28;20285;-73
2023/03/18 11:34:07;;;;;;;4.70;1.70;;;;;;;17.32;98.00;100922.84;5194992;28;20068;-74
2023/03/18 11:36:38;;;;;;;6.00;2.07;;;;;;;17.40;97.27;100966.19;5181959;28;20026;-74